createdAt,value
2018-02-07T00:00:40.436Z,-1.42
2018-02-07T00:03:08.777Z,-1.46
2018-02-07T00:05:37.142Z,-1.40
2018-02-07T00:08:05.494Z,-1.44
2018-02-07T00:10:33.817Z,-1.25
2018-02-07T00:13:02.178Z,-1.12
2018-02-07T00:15:30.500Z,-1.18
2018-02-07T00:17:58.810Z,-1.27
2018-02-07T00:20:27.157Z,-1.25
2018-02-07T00:22:55.519Z,-1.18
2018-02-07T00:25:23.870Z,-1.26
2018-02-07T00:27:53.039Z,-1.30
2018-02-07T00:30:21.395Z,-1.34
2018-02-07T00:32:49.714Z,-1.42
2018-02-07T00:35:18.110Z,-1.50
2018-02-07T00:37:46.430Z,-1.51
2018-02-07T00:40:14.822Z,-1.46
2018-02-07T00:42:43.160Z,-1.50
2018-02-07T00:45:11.506Z,-1.50
2018-02-07T00:47:39.858Z,-1.48
2018-02-07T00:50:08.186Z,-1.28
2018-02-07T00:52:36.533Z,-1.48
2018-02-07T00:55:04.941Z,-1.48
2018-02-07T00:57:33.293Z,-1.39
2018-02-07T01:00:01.625Z,-1.39
2018-02-07T01:02:29.971Z,-1.29
2018-02-07T01:04:58.295Z,-1.37
2018-02-07T01:07:26.657Z,-1.43
2018-02-07T01:09:54.980Z,-1.44
2018-02-07T01:12:23.306Z,-1.50
2018-02-07T01:14:51.655Z,-1.57
2018-02-07T01:17:19.976Z,-1.56
2018-02-07T01:19:48.310Z,-1.53
2018-02-07T01:22:16.641Z,-1.57
2018-02-07T01:24:45.080Z,-1.60
2018-02-07T01:27:13.406Z,-1.72
2018-02-07T01:29:41.840Z,-1.80
2018-02-07T01:32:10.256Z,-1.89
2018-02-07T01:34:38.633Z,-1.78
2018-02-07T01:37:06.930Z,-1.81
2018-02-07T01:39:35.253Z,-1.87
2018-02-07T01:42:03.607Z,-1.91
2018-02-07T01:44:31.984Z,-1.79
2018-02-07T01:47:00.327Z,-1.57
2018-02-07T01:49:28.647Z,-1.49
2018-02-07T01:51:56.998Z,-1.54
2018-02-07T01:54:25.322Z,-1.34
2018-02-07T01:56:53.666Z,-1.27
2018-02-07T01:59:22.030Z,-1.30
2018-02-07T02:01:50.373Z,-1.27
2018-02-07T02:04:18.707Z,-1.30
2018-02-07T02:06:47.062Z,-1.33
2018-02-07T02:09:15.382Z,-1.35
2018-02-07T02:11:43.705Z,-1.39
2018-02-07T02:14:12.050Z,-1.40
2018-02-07T02:16:40.375Z,-1.38
2018-02-07T02:19:08.729Z,-1.33
2018-02-07T02:21:37.061Z,-1.34
2018-02-07T02:24:05.424Z,-1.40
2018-02-07T02:26:33.756Z,-1.46
2018-02-07T02:29:02.102Z,-1.48
2018-02-07T02:31:30.436Z,-1.70
2018-02-07T02:33:58.796Z,-1.65
2018-02-07T02:36:38.923Z,-1.64
2018-02-07T02:39:07.283Z,-1.65
2018-02-07T02:41:35.619Z,-1.68
2018-02-07T02:44:03.940Z,-1.56
2018-02-07T02:46:32.324Z,-1.46
2018-02-07T02:49:00.637Z,-1.43
2018-02-07T02:51:28.996Z,-1.32
2018-02-07T02:53:57.320Z,-1.25
2018-02-07T02:56:25.763Z,-1.19
2018-02-07T02:58:54.079Z,-1.27
2018-02-07T03:01:22.442Z,-1.23
2018-02-07T03:03:50.867Z,-1.15
2018-02-07T03:06:19.190Z,-1.02
2018-02-07T03:08:47.534Z,-1.02
2018-02-07T03:11:15.858Z,-0.94
2018-02-07T03:13:44.202Z,-1.01
2018-02-07T03:16:12.522Z,-1.00
2018-02-07T03:18:40.873Z,-1.02
2018-02-07T03:21:09.202Z,-1.10
2018-02-07T03:23:37.561Z,-1.15
2018-02-07T03:26:05.889Z,-1.08
2018-02-07T03:28:34.261Z,-1.21
2018-02-07T03:31:02.595Z,-1.26
2018-02-07T03:33:30.937Z,-1.20
2018-02-07T03:35:59.277Z,-1.26
2018-02-07T03:38:27.663Z,-1.19
2018-02-07T03:40:55.990Z,-1.23
2018-02-07T03:43:24.322Z,-1.27
2018-02-07T03:45:52.678Z,-1.24
2018-02-07T03:48:21.062Z,-1.20
2018-02-07T03:50:49.430Z,-1.19
2018-02-07T03:53:17.758Z,-1.21
2018-02-07T03:55:46.110Z,-1.14
2018-02-07T03:58:14.444Z,-1.14
2018-02-07T04:00:42.809Z,-1.05
2018-02-07T04:03:11.165Z,-1.11
2018-02-07T04:05:39.611Z,-1.14
2018-02-07T04:08:07.951Z,-1.07
2018-02-07T04:10:36.361Z,-1.11
2018-02-07T04:13:04.717Z,-1.04
2018-02-07T04:15:33.049Z,-1.01
2018-02-07T04:18:01.391Z,-1.05
2018-02-07T04:20:29.731Z,-0.99
2018-02-07T04:22:58.090Z,-0.96
2018-02-07T04:25:26.415Z,-1.02
2018-02-07T04:27:54.815Z,-1.04
2018-02-07T04:30:23.154Z,-0.97
2018-02-07T04:32:51.604Z,-0.93
2018-02-07T04:35:19.914Z,-0.88
2018-02-07T04:37:48.239Z,-0.78
2018-02-07T04:40:16.586Z,-0.82
2018-02-07T04:42:44.974Z,-0.86
2018-02-07T04:45:13.342Z,-0.80
2018-02-07T04:47:41.677Z,-0.86
2018-02-07T04:50:10.029Z,-0.85
2018-02-07T04:52:38.353Z,-0.87
2018-02-07T04:55:06.737Z,-0.87
2018-02-07T04:57:35.076Z,-0.71
2018-02-07T05:00:03.763Z,-0.70
2018-02-07T05:02:32.208Z,-0.73
2018-02-07T05:05:00.683Z,-0.70
2018-02-07T05:07:29.042Z,-0.78
2018-02-07T05:09:57.367Z,-0.68
2018-02-07T05:12:25.722Z,-0.62
2018-02-07T05:14:54.054Z,-0.64
2018-02-07T05:17:22.418Z,-0.62
2018-02-07T05:19:50.742Z,-0.58
2018-02-07T05:22:19.098Z,-0.59
2018-02-07T05:24:47.430Z,-0.57
2018-02-07T05:27:15.789Z,-0.63
2018-02-07T05:29:44.125Z,-0.62
2018-02-07T05:32:13.362Z,-0.62
2018-02-07T05:34:41.735Z,-0.71
2018-02-07T05:37:10.065Z,-0.75
2018-02-07T05:39:38.451Z,-0.76
2018-02-07T05:42:06.781Z,-0.82
2018-02-07T05:44:35.127Z,-0.83
2018-02-07T05:47:03.478Z,-0.63
2018-02-07T05:49:31.830Z,-0.55
2018-02-07T05:52:00.155Z,-0.57
2018-02-07T05:54:28.511Z,-0.60
2018-02-07T05:56:56.842Z,-0.59
2018-02-07T05:59:25.314Z,-0.54
2018-02-07T06:01:53.650Z,-0.57
2018-02-07T06:04:21.978Z,-0.57
2018-02-07T06:06:50.337Z,-0.65
2018-02-07T06:09:18.719Z,-0.71
2018-02-07T06:11:47.085Z,-0.83
2018-02-07T06:14:15.431Z,-0.84
2018-02-07T06:16:43.783Z,-0.92
2018-02-07T06:19:12.111Z,-0.84
2018-02-07T06:21:40.515Z,-0.80
2018-02-07T06:24:08.861Z,-0.79
2018-02-07T06:26:37.223Z,-0.81
2018-02-07T06:29:05.551Z,-0.84
2018-02-07T06:31:33.919Z,-0.86
2018-02-07T06:34:02.258Z,-0.82
2018-02-07T06:36:30.594Z,-0.83
2018-02-07T06:38:59.024Z,-0.83
2018-02-07T06:41:27.378Z,-0.76
2018-02-07T06:43:55.742Z,-0.80
2018-02-07T06:46:24.094Z,-0.76
2018-02-07T06:48:52.467Z,-0.81
2018-02-07T06:51:20.893Z,-0.83
2018-02-07T06:53:49.231Z,-0.83
2018-02-07T06:56:17.577Z,-0.78
2018-02-07T06:58:45.989Z,-0.64
2018-02-07T07:01:14.323Z,-0.61
2018-02-07T07:03:42.666Z,-0.61
2018-02-07T07:06:11.019Z,-0.62
2018-02-07T07:08:39.427Z,-0.71
2018-02-07T07:11:07.746Z,-0.70
2018-02-07T07:13:36.092Z,-0.72
2018-02-07T07:16:04.426Z,-0.80
2018-02-07T07:18:32.776Z,-0.77
2018-02-07T07:21:01.229Z,-0.73
2018-02-07T07:23:29.581Z,-0.65
2018-02-07T07:25:58.291Z,-0.52
2018-02-07T07:28:26.816Z,-0.45
2018-02-07T07:30:55.166Z,-0.44
2018-02-07T07:33:23.495Z,-0.43
2018-02-07T07:35:51.849Z,-0.54
2018-02-07T07:38:20.189Z,-0.58
2018-02-07T07:40:48.635Z,-0.59
2018-02-07T07:43:16.987Z,-0.51
2018-02-07T07:45:45.391Z,-0.70
2018-02-07T07:48:13.754Z,-0.59
2018-02-07T07:50:42.101Z,-0.60
2018-02-07T07:53:10.522Z,-0.58
2018-02-07T07:55:38.870Z,-0.44
2018-02-07T07:58:07.226Z,-0.60
2018-02-07T08:00:35.562Z,-0.52
2018-02-07T08:03:03.954Z,-0.41
2018-02-07T08:05:32.260Z,-0.34
2018-02-07T08:08:00.590Z,-0.36
2018-02-07T08:10:28.956Z,-0.45
2018-02-07T08:12:57.382Z,-0.39
2018-02-07T08:15:25.725Z,-0.41
2018-02-07T08:17:54.057Z,-0.31
2018-02-07T08:20:22.406Z,-0.37
2018-02-07T08:22:50.752Z,-0.40
2018-02-07T08:25:19.106Z,-0.44
2018-02-07T08:27:47.469Z,-0.26
2018-02-07T08:30:15.849Z,-0.34
2018-02-07T08:32:44.264Z,-0.23
2018-02-07T08:35:12.656Z,-0.14
2018-02-07T08:37:40.986Z,-0.24
2018-02-07T08:40:09.328Z,-0.25
2018-02-07T08:42:37.702Z,-0.21
2018-02-07T08:45:06.034Z,-0.25
2018-02-07T08:47:34.393Z,-0.14
2018-02-07T08:50:02.717Z,-0.16
2018-02-07T08:52:31.071Z,-0.10
2018-02-07T08:54:59.503Z,-0.08
2018-02-07T08:57:27.841Z,-0.04
2018-02-07T08:59:56.169Z,-0.14
2018-02-07T09:02:24.537Z,-0.07
2018-02-07T09:04:52.977Z,-0.03
2018-02-07T09:07:21.285Z,-0.06
2018-02-07T09:09:49.606Z,-0.09
2018-02-07T09:12:18.050Z,-0.10
2018-02-07T09:14:46.362Z,-0.07
2018-02-07T09:17:14.706Z,-0.15
2018-02-07T09:19:43.054Z,-0.04
2018-02-07T09:22:11.382Z,-0.11
2018-02-07T09:24:39.736Z,-0.12
2018-02-07T09:27:08.062Z,-0.07
2018-02-07T09:29:36.424Z,0.02
2018-02-07T09:32:04.771Z,-0.02
2018-02-07T09:34:33.351Z,-0.02
2018-02-07T09:37:02.283Z,-0.08
2018-02-07T09:39:30.633Z,-0.01
2018-02-07T09:41:58.973Z,-0.09
2018-02-07T09:44:27.349Z,0.02
2018-02-07T09:46:55.676Z,-0.07
2018-02-07T09:49:24.012Z,0.04
2018-02-07T09:51:52.377Z,-0.11
2018-02-07T09:54:20.722Z,-0.17
2018-02-07T09:56:49.132Z,-0.08
2018-02-07T09:59:17.462Z,-0.02
2018-02-07T10:01:45.821Z,0.01
2018-02-07T10:04:14.158Z,0.09
2018-02-07T10:06:42.501Z,0.07
2018-02-07T10:09:10.847Z,0.08
2018-02-07T10:11:39.232Z,0.13
2018-02-07T10:14:07.559Z,-0.01
2018-02-07T10:16:35.933Z,0.12
2018-02-07T10:19:04.272Z,0.07
2018-02-07T10:21:32.605Z,0.09
2018-02-07T10:24:00.971Z,0.06
2018-02-07T10:26:29.369Z,-0.01
2018-02-07T10:28:57.743Z,-0.06
2018-02-07T10:31:26.089Z,-0.05
2018-02-07T10:33:54.446Z,0.03
2018-02-07T10:36:22.769Z,-0.06
2018-02-07T10:38:51.129Z,-0.11
2018-02-07T10:41:19.450Z,-0.04
2018-02-07T10:43:47.838Z,-0.01
2018-02-07T10:46:16.180Z,-0.06
2018-02-07T10:48:44.499Z,0.03
2018-02-07T10:51:12.911Z,-0.10
2018-02-07T10:53:41.238Z,-0.13
2018-02-07T10:56:09.633Z,-0.05
2018-02-07T10:58:38.006Z,-0.07
2018-02-07T11:01:06.389Z,-0.04
2018-02-07T11:03:34.718Z,0.00
2018-02-07T11:06:03.085Z,0.07
2018-02-07T11:08:31.415Z,0.10
2018-02-07T11:10:59.778Z,0.18
2018-02-07T11:13:28.153Z,0.10
2018-02-07T11:15:56.476Z,-0.01
2018-02-07T11:18:24.826Z,0.11
2018-02-07T11:20:53.196Z,0.11
2018-02-07T11:23:21.534Z,0.19
2018-02-07T11:25:49.874Z,0.17
2018-02-07T11:28:18.218Z,0.22
2018-02-07T11:30:46.546Z,0.18
2018-02-07T11:33:14.895Z,0.20
2018-02-07T11:35:43.220Z,0.16
2018-02-07T11:38:11.561Z,0.20
2018-02-07T11:40:39.887Z,0.21
2018-02-07T11:43:08.237Z,0.37
2018-02-07T11:45:36.576Z,0.21
2018-02-07T11:48:04.960Z,0.15
2018-02-07T11:50:33.408Z,0.17
2018-02-07T11:53:01.824Z,0.07
2018-02-07T11:55:30.266Z,0.08
2018-02-07T11:57:58.594Z,0.20
2018-02-07T12:00:26.948Z,0.07
2018-02-07T12:02:55.330Z,0.16
2018-02-07T12:05:23.684Z,0.15
2018-02-07T12:07:51.998Z,-0.02
2018-02-07T12:10:20.358Z,0.06
2018-02-07T12:12:48.693Z,-0.02
2018-02-07T12:15:17.040Z,-0.03
2018-02-07T12:17:45.380Z,-0.06
2018-02-07T12:20:13.754Z,-0.01
2018-02-07T12:22:42.993Z,0.03
2018-02-07T12:25:11.315Z,0.06
2018-02-07T12:27:39.667Z,-0.08
2018-02-07T12:30:08.203Z,-0.11
2018-02-07T12:32:36.657Z,-0.42
2018-02-07T12:35:04.993Z,-0.21
2018-02-07T12:37:33.334Z,-0.26
2018-02-07T12:40:01.672Z,-0.39
2018-02-07T12:42:30.024Z,-0.17
2018-02-07T12:44:58.372Z,-0.22
2018-02-07T12:47:26.754Z,-0.13
2018-02-07T12:49:55.087Z,-0.29
2018-02-07T12:52:23.430Z,-0.32
2018-02-07T12:54:51.777Z,-0.26
2018-02-07T12:57:20.115Z,-0.21
2018-02-07T12:59:48.479Z,-0.15
2018-02-07T13:02:16.823Z,-0.11
2018-02-07T13:04:45.180Z,-0.16
2018-02-07T13:07:13.511Z,-0.14
2018-02-07T13:09:41.876Z,-0.39
2018-02-07T13:12:10.231Z,-0.36
2018-02-07T13:14:38.582Z,-0.28
2018-02-07T13:17:06.907Z,-0.30
2018-02-07T13:19:35.269Z,-0.25
2018-02-07T13:22:03.610Z,-0.31
2018-02-07T13:24:31.990Z,-0.30
2018-02-07T13:27:00.329Z,-0.42
2018-02-07T13:29:28.700Z,-0.39
2018-02-07T13:31:57.053Z,-0.36
2018-02-07T13:34:25.379Z,-0.31
2018-02-07T13:36:53.737Z,-0.30
2018-02-07T13:39:22.197Z,-0.16
2018-02-07T13:41:50.639Z,-0.26
2018-02-07T13:44:19.003Z,-0.28
2018-02-07T13:46:47.327Z,-0.32
2018-02-07T13:49:15.655Z,-0.38
2018-02-07T13:51:44.092Z,-0.33
2018-02-07T13:54:12.414Z,-0.53
2018-02-07T13:56:40.765Z,-0.54
2018-02-07T13:59:09.106Z,-0.42
2018-02-07T14:01:37.444Z,-0.38
2018-02-07T14:04:05.830Z,-0.36
2018-02-07T14:06:34.222Z,-0.48
2018-02-07T14:09:02.602Z,-0.31
2018-02-07T14:11:30.952Z,-0.23
2018-02-07T14:13:59.398Z,-0.13
2018-02-07T14:16:27.736Z,-0.11
2018-02-07T14:18:56.091Z,-0.04
2018-02-07T14:21:24.415Z,0.03
2018-02-07T14:23:52.850Z,0.00
2018-02-07T14:26:22.165Z,0.05
2018-02-07T14:28:50.515Z,0.00
2018-02-07T14:31:18.837Z,0.08
2018-02-07T14:33:47.297Z,-0.05
2018-02-07T14:36:15.637Z,0.07
2018-02-07T14:38:44.034Z,0.02
2018-02-07T14:41:12.354Z,0.00
2018-02-07T14:43:40.676Z,0.01
2018-02-07T14:46:09.030Z,-0.06
2018-02-07T14:48:37.362Z,-0.01
2018-02-07T14:51:05.762Z,-0.02
2018-02-07T14:53:34.092Z,0.05
2018-02-07T14:56:02.454Z,0.13
2018-02-07T14:58:30.781Z,0.18
2018-02-07T15:00:59.121Z,0.13
2018-02-07T15:03:27.449Z,0.17
2018-02-07T15:05:55.821Z,0.23
2018-02-07T15:08:24.152Z,0.22
2018-02-07T15:10:52.498Z,0.21
2018-02-07T15:13:20.846Z,0.20
2018-02-07T15:15:49.171Z,0.19
2018-02-07T15:18:17.514Z,0.30
2018-02-07T15:20:45.844Z,0.33
2018-02-07T15:23:14.234Z,0.28
2018-02-07T15:25:42.561Z,0.31
2018-02-07T15:28:10.910Z,0.25
2018-02-07T15:30:39.326Z,0.20
2018-02-07T15:33:07.670Z,0.18
2018-02-07T15:35:36.019Z,0.26
2018-02-07T15:38:04.481Z,0.17
2018-02-07T15:40:32.823Z,0.18
2018-02-07T15:43:01.220Z,0.18
2018-02-07T15:45:29.567Z,0.20
2018-02-07T15:47:57.974Z,0.03
2018-02-07T15:50:26.320Z,-0.13
2018-02-07T15:52:54.659Z,-0.03
2018-02-07T15:55:23.139Z,0.03
2018-02-07T15:57:51.446Z,-0.05
2018-02-07T16:00:19.810Z,-0.17
2018-02-07T16:02:48.928Z,-0.22
2018-02-07T16:05:17.278Z,-0.29
2018-02-07T16:07:45.602Z,-0.19
2018-02-07T16:10:13.992Z,-0.23
2018-02-07T16:12:42.306Z,-0.22
2018-02-07T16:15:10.706Z,-0.16
2018-02-07T16:17:39.042Z,-0.21
2018-02-07T16:20:07.414Z,-0.16
2018-02-07T16:22:35.953Z,-0.21
2018-02-07T16:25:04.329Z,-0.15
2018-02-07T16:27:32.693Z,-0.16
2018-02-07T16:30:01.123Z,-0.20
2018-02-07T16:32:29.567Z,-0.18
2018-02-07T16:34:57.907Z,-0.15
2018-02-07T16:37:26.265Z,-0.31
2018-02-07T16:39:54.610Z,-0.32
2018-02-07T16:42:23.032Z,-0.35
2018-02-07T16:44:51.403Z,-0.35
2018-02-07T16:47:19.742Z,-0.32
2018-02-07T16:49:48.080Z,-0.36
2018-02-07T16:52:16.528Z,-0.35
2018-02-07T16:54:44.908Z,-0.27
2018-02-07T16:57:13.223Z,-0.23
2018-02-07T16:59:41.590Z,-0.29
2018-02-07T17:02:09.929Z,-0.19
2018-02-07T17:04:38.313Z,-0.26
2018-02-07T17:07:06.627Z,-0.26
2018-02-07T17:09:34.993Z,-0.27
2018-02-07T17:12:03.338Z,-0.25
2018-02-07T17:14:31.750Z,-0.16
2018-02-07T17:17:00.073Z,-0.14
2018-02-07T17:19:28.475Z,-0.17
2018-02-07T17:21:56.795Z,-0.14
2018-02-07T17:24:25.152Z,-0.11
2018-02-07T17:26:53.524Z,-0.06
2018-02-07T17:29:21.846Z,-0.13
2018-02-07T17:31:50.212Z,-0.18
2018-02-07T17:34:18.554Z,-0.34
2018-02-07T17:36:46.919Z,-0.28
2018-02-07T17:39:15.259Z,-0.25
2018-02-07T17:41:43.617Z,-0.24
2018-02-07T17:44:12.063Z,-0.33
2018-02-07T17:46:40.515Z,-0.27
2018-02-07T17:49:08.891Z,-0.22
2018-02-07T17:51:37.275Z,-0.29
2018-02-07T17:54:05.687Z,-0.35
2018-02-07T17:56:34.011Z,-0.42
2018-02-07T17:59:02.371Z,-0.44
2018-02-07T18:01:30.707Z,-0.32
2018-02-07T18:03:59.078Z,-0.40
2018-02-07T18:06:27.439Z,-0.42
2018-02-07T18:08:55.810Z,-0.48
2018-02-07T18:11:24.162Z,-0.53
2018-02-07T18:13:52.604Z,-0.56
2018-02-07T18:16:20.946Z,-0.47
2018-02-07T18:18:49.310Z,-0.53
2018-02-07T18:21:17.659Z,-0.55
2018-02-07T18:23:46.001Z,-0.60
2018-02-07T18:26:14.340Z,-0.66
2018-02-07T18:28:42.709Z,-0.56
2018-02-07T18:31:11.033Z,-0.53
2018-02-07T18:33:39.387Z,-0.65
2018-02-07T18:36:07.805Z,-0.54
2018-02-07T18:38:36.125Z,-0.62
2018-02-07T18:41:04.482Z,-0.51
2018-02-07T18:43:32.939Z,-0.51
2018-02-07T18:46:01.275Z,-0.49
2018-02-07T18:48:29.617Z,-0.46
2018-02-07T18:50:57.958Z,-0.38
2018-02-07T18:53:26.286Z,-0.52
2018-02-07T18:55:54.652Z,-0.50
2018-02-07T18:58:23.022Z,-0.51
2018-02-07T19:00:51.364Z,-0.50
2018-02-07T19:03:19.699Z,-0.39
2018-02-07T19:05:48.110Z,-0.43
2018-02-07T19:08:16.475Z,-0.48
2018-02-07T19:10:44.802Z,-0.45
2018-02-07T19:13:13.175Z,-0.44
2018-02-07T19:15:41.499Z,-0.49
2018-02-07T19:18:09.877Z,-0.42
2018-02-07T19:20:38.245Z,-0.42
2018-02-07T19:23:06.609Z,-0.39
2018-02-07T19:25:34.951Z,-0.40
2018-02-07T19:28:03.303Z,-0.37
2018-02-07T19:30:31.824Z,-0.39
2018-02-07T19:33:00.172Z,-0.43
2018-02-07T19:35:28.514Z,-0.32
2018-02-07T19:37:57.027Z,-0.37
2018-02-07T19:40:25.440Z,-0.37
2018-02-07T19:42:53.761Z,-0.45
2018-02-07T19:45:22.684Z,-0.37
2018-02-07T19:47:51.009Z,-0.42
2018-02-07T19:50:19.376Z,-0.33
2018-02-07T19:52:47.699Z,-0.32
2018-02-07T19:55:16.063Z,-0.19
2018-02-07T19:57:44.401Z,-0.30
2018-02-07T20:00:12.765Z,-0.29
2018-02-07T20:02:42.922Z,-0.32
2018-02-07T20:05:11.269Z,-0.37
2018-02-07T20:07:39.598Z,-0.34
2018-02-07T20:10:07.990Z,-0.37
2018-02-07T20:12:36.310Z,-0.34
2018-02-07T20:15:04.670Z,-0.42
2018-02-07T20:17:33.010Z,-0.36
2018-02-07T20:20:01.410Z,-0.37
2018-02-07T20:22:29.754Z,-0.35
2018-02-07T20:24:58.087Z,-0.28
2018-02-07T20:27:26.438Z,-0.26
2018-02-07T20:29:54.809Z,-0.34
2018-02-07T20:32:23.177Z,-0.35
2018-02-07T20:34:51.513Z,-0.39
2018-02-07T20:37:19.875Z,-0.24
2018-02-07T20:39:48.203Z,-0.38
2018-02-07T20:42:16.567Z,-0.30
2018-02-07T20:44:44.895Z,-0.33
2018-02-07T20:47:13.298Z,-0.36
2018-02-07T20:49:41.668Z,-0.35
2018-02-07T20:52:09.987Z,-0.28
2018-02-07T20:54:38.342Z,-0.36
2018-02-07T20:57:06.699Z,-0.25
2018-02-07T20:59:35.046Z,-0.37
2018-02-07T21:02:03.436Z,-0.44
2018-02-07T21:04:31.763Z,-0.49
2018-02-07T21:07:01.268Z,-0.40
2018-02-07T21:09:29.710Z,-0.50
2018-02-07T21:11:58.018Z,-0.45
2018-02-07T21:14:26.385Z,-0.48
2018-02-07T21:16:54.714Z,-0.54
2018-02-07T21:19:23.079Z,-0.44
2018-02-07T21:21:51.649Z,-0.38
2018-02-07T21:24:20.023Z,-0.40
2018-02-07T21:26:48.409Z,-0.53
2018-02-07T21:29:16.722Z,-0.52
2018-02-07T21:31:45.085Z,-0.42
2018-02-07T21:34:13.408Z,-0.57
2018-02-07T21:36:41.773Z,-0.49
2018-02-07T21:39:10.108Z,-0.46
2018-02-07T21:41:38.498Z,-0.57
2018-02-07T21:44:06.818Z,-0.57
2018-02-07T21:46:35.145Z,-0.54
2018-02-07T21:49:03.502Z,-0.53
2018-02-07T21:51:31.832Z,-0.57
2018-02-07T21:54:00.281Z,-0.54
2018-02-07T21:56:28.620Z,-0.56
2018-02-07T21:58:57.043Z,-0.49
2018-02-07T22:01:25.375Z,-0.48
2018-02-07T22:03:53.737Z,-0.46
2018-02-07T22:06:22.075Z,-0.52
2018-02-07T22:08:50.489Z,-0.51
2018-02-07T22:11:18.822Z,-0.52
2018-02-07T22:13:47.154Z,-0.53
2018-02-07T22:16:15.594Z,-0.51
2018-02-07T22:18:43.974Z,-0.46
2018-02-07T22:21:12.342Z,-0.54
2018-02-07T22:23:40.734Z,-0.52
2018-02-07T22:26:09.160Z,-0.52
2018-02-07T22:28:37.498Z,-0.56
2018-02-07T22:31:05.858Z,-0.59
2018-02-07T22:33:34.195Z,-0.54
2018-02-07T22:36:02.670Z,-0.51
2018-02-07T22:38:30.989Z,-0.54
2018-02-07T22:40:59.677Z,-0.50
2018-02-07T22:43:28.001Z,-0.55
2018-02-07T22:45:56.374Z,-0.50
2018-02-07T22:48:24.714Z,-0.45
2018-02-07T22:50:53.073Z,-0.53
2018-02-07T22:53:21.502Z,-0.48
2018-02-07T22:55:49.895Z,-0.56
2018-02-07T22:58:18.256Z,-0.53
2018-02-07T23:00:46.567Z,-0.49
2018-02-07T23:03:14.930Z,-0.49
2018-02-07T23:05:43.270Z,-0.49
2018-02-07T23:08:11.654Z,-0.31
2018-02-07T23:10:39.966Z,-0.44
2018-02-07T23:13:08.339Z,-0.50
2018-02-07T23:15:36.661Z,-0.47
2018-02-07T23:18:04.994Z,-0.57
2018-02-07T23:20:33.415Z,-0.58
2018-02-07T23:23:01.745Z,-0.62
2018-02-07T23:25:30.192Z,-0.59
2018-02-07T23:27:59.517Z,-0.55
2018-02-07T23:30:27.852Z,-0.58
2018-02-07T23:32:56.183Z,-0.49
2018-02-07T23:35:24.546Z,-0.61
2018-02-07T23:37:52.882Z,-0.48
2018-02-07T23:40:21.288Z,-0.47
2018-02-07T23:42:49.612Z,-0.44
2018-02-07T23:45:17.932Z,-0.58
2018-02-07T23:47:46.282Z,-0.66
2018-02-07T23:50:14.614Z,-0.71
2018-02-07T23:52:42.994Z,-0.63
2018-02-07T23:55:11.374Z,-0.57
2018-02-07T23:57:39.702Z,-0.58
